To NAV CANADA Home Page Login to a new session Search on AWWS site Feedback and Comments Disclaimer Vers la page française équivalente Tips FAQ What's new on the site To the Forecasts and Observations / NOTAM section To "File a Flight Plan" website Publications and other links Update of the User's profile FIC Telephone Numbers My Weather Data Folder Route Weather Data Regional Weather Data Local Weather Data To the Forecasts and Observations / NOTAM section
Request Generated 06/01/2016 at 01:33:53 UTC . Weather information available at that time is displayed.

METAR/TAF

YARMOUTH/NS    

SPECI CYQI 010132Z 25011G17KT 1SM BR BKN003 12/12 A2988 RMK FG4SF3
SLP121=
SPECI CYQI 010124Z 24011G16KT 1/2SM FG SKC 11/11 A2988 RMK FG7
SLP121=
SPECI CYQI 010116Z 25012G18KT 3/4SM BR SKC 11/11 A2988 RMK FG7
SLP120=
METAR CYQI 010100Z 25016G25KT 9SM SCT004 13/13 A2987 RMK SF3 SLP117=
SPECI CYQI 010034Z 25012G18KT 9SM SCT002 11/11 A2986 RMK SF4 SLP115=
SPECI CYQI 010005Z 24013G19KT 2SM BR BKN002 11/11 A2986 RMK FG4SF3
SLP113=
METAR CYQI 010000Z 24013KT 3/4SM BR VV001 11/11 A2986 RMK FG8 SLP113=
SPECI CYQI 312346Z 25012G20KT 3/4SM BR VV001 11/11 A2986 RMK FG8
SLP113=
SPECI CYQI 312312Z 24010G20KT 3/8SM FG VV001 11/11 A2985 RMK FG8
SLP112=
METAR CYQI 312300Z 24014G23KT 5/8SM BR SKC 12/12 A2985 RMK FG7
SLP112=

TAF AMD CYQI 010102Z 0101/0112 26015G25KT 6SM BR SCT002 TEMPO
0101/0103 1/2SM FG VV002
BECMG 0103/0105 30006KT
FM010500 30006KT P6SM SCT025
BECMG 0107/0109 36008KT
RMK NXT FCST BY 010600Z=
Your time UTC time
Weather data provided by Environment Canada and NAV CANADA